M S San Francisco — WZC3886 — position and weather

sailwx.info

Track history (hours):
 
Tides and Currents Weather Stations Pressure Air Temp Water Temp Dewpoint Dewpoint Depression Visibility Wind Speed Wind Dir Waves Ship Positions

M S San Francisco

Owner: GOLDEN GATE BRIDGE HWY & TRANSP DISTRICT, LARKSPUR, CA. More information available from US FCC via Universal Licensing System and Coast Guard Vessel Documentation Center.

Last reported at 2017-Dec-16 05:00 UTC. Time now 2017-Dec-16 05:03 UTC.
Position N 37°56' W 122°29'.

Length 58 m.

Type: Passenger vessel. MMSI: 366963980.

Date/timePositionNaut miles runAvg speedWind from/ knotsBaromVisibWave heightAir tempDewpointWater temp
2017-Dec-16 05:00N 37°56' W 122°29'4 8.0
2017-Dec-16 04:30N 37°52' W 122°27'510.7
2017-Dec-16 04:00N 37°48' W 122°24'511.0
2017-Dec-16 03:31N 37°52' W 122°27'510.8
2017-Dec-16 03:01N 37°48' W 122°23'4 7.3
2017-Dec-16 02:30N 37°51' W 122°26'1 2.9
2017-Dec-16 02:00N 37°50' W 122°25'2 4.2
2017-Dec-16 01:31N 37°48' W 122°23'510.2
2017-Dec-16 01:00N 37°52' W 122°27'510.9
2017-Dec-16 00:31N 37°48' W 122°23'0 0.9
2017-Dec-16 00:00N 37°48' W 122°23'0 0.9
2017-Dec-15 23:30N 37°48' W 122°24'0 0.0
2017-Dec-15 23:00N 37°48' W 122°24'0 0.0
2017-Dec-15 22:30N 37°48' W 122°24'0 0.0
2017-Dec-15 22:00N 37°48' W 122°24'0 0.0
2017-Dec-15 21:30N 37°48' W 122°24'0 0.0
2017-Dec-15 21:00N 37°48' W 122°24'0 0.0
2017-Dec-15 20:30N 37°48' W 122°24'0 0.0
2017-Dec-15 20:00N 37°48' W 122°24'0 0.0
2017-Dec-15 19:30N 37°48' W 122°24'0 0.0
2017-Dec-15 19:00N 37°48' W 122°24'0 0.0
2017-Dec-15 18:30N 37°48' W 122°24'0 0.8
2017-Dec-15 18:00N 37°48' W 122°23'1 2.2
2017-Dec-15 17:31N 37°49' W 122°24'5 9.4
2017-Dec-15 17:00N 37°52' W 122°27'510.8
2017-Dec-15 16:30N 37°48' W 122°24'510.7
2017-Dec-15 16:00N 37°52' W 122°27'4 8.1
2017-Dec-15 15:30N 37°49' W 122°24'1 1.4
2017-Dec-15 15:01N 37°50' W 122°24'4 7.2
2017-Dec-15 14:30N 37°52' W 122°27'510.9
2017-Dec-15 14:01N 37°48' W 122°24'510.9
2017-Dec-15 13:30N 37°52' W 122°27'3 6.3
2017-Dec-15 13:00N 37°55' W 122°28'3 0.4
2017-Dec-15 05:58N 37°57' W 122°31'0 0.0
2017-Dec-15 05:30N 37°57' W 122°31'3 6.3
2017-Dec-15 05:00N 37°55' W 122°27'3 5.5
2017-Dec-15 04:30N 37°52' W 122°27'510.9
2017-Dec-15 04:00N 37°48' W 122°24'4 2.6
2017-Dec-15 02:31N 37°51' W 122°26'2 1.0
2017-Dec-15 01:00N 37°52' W 122°27'510.9
2017-Dec-15 00:30N 37°48' W 122°23'0 0.0
2017-Dec-14 18:31N 37°48' W 122°24'0 0.7
2017-Dec-14 18:00N 37°48' W 122°23'1 2.3
2017-Dec-14 17:30N 37°49' W 122°23'5 9.3
2017-Dec-14 17:01N 37°52' W 122°27'510.5
2017-Dec-14 16:30N 37°48' W 122°24'510.5
2017-Dec-14 16:00N 37°52' W 122°27'3 3.5
2017-Dec-14 15:00N 37°50' W 122°24'4 7.1
2017-Dec-14 14:30N 37°52' W 122°27'510.7
2017-Dec-14 14:00N 37°48' W 122°24'510.9
2017-Dec-14 13:30N 37°52' W 122°27'4 7.7
2017-Dec-14 13:00N 37°56' W 122°29'  
2017-Dec-11 19:06N 37°57' W 122°31'0 0.1
2017-Dec-11 19:00N 37°57' W 122°31'0 0.0
2017-Dec-11 18:30N 37°57' W 122°31'0 0.0
2017-Dec-11 18:00N 37°57' W 122°31'0 0.1
2017-Dec-11 17:30N 37°57' W 122°30'0 0.1
2017-Dec-11 17:00N 37°57' W 122°31'0 0.0
2017-Dec-11 16:30N 37°57' W 122°31'0 0.1
2017-Dec-11 16:00N 37°57' W 122°30'0 0.0
2017-Dec-11 15:30N 37°57' W 122°30'0 0.1
2017-Dec-11 15:00N 37°57' W 122°31'0 0.0
2017-Dec-11 14:30N 37°57' W 122°31'0 0.1
2017-Dec-11 14:00N 37°57' W 122°30'0 0.1
2017-Dec-11 13:30N 37°57' W 122°31'0 0.0
2017-Dec-11 13:00N 37°57' W 122°31'0 0.0
2017-Dec-11 12:30N 37°57' W 122°31'0 0.1
2017-Dec-11 12:00N 37°57' W 122°30'0 0.1
2017-Dec-11 11:30N 37°57' W 122°31'0 0.0
2017-Dec-11 11:00N 37°57' W 122°31'0 0.0
2017-Dec-11 10:30N 37°57' W 122°31'0 0.0
2017-Dec-11 10:00N 37°57' W 122°31'0 0.0
2017-Dec-11 09:30N 37°57' W 122°31'0 0.0
2017-Dec-11 09:00N 37°57' W 122°31'0 0.0
2017-Dec-11 08:30N 37°57' W 122°31'0 0.0
2017-Dec-11 08:00N 37°57' W 122°31'0 0.0
2017-Dec-11 07:30N 37°57' W 122°31'0 0.0
2017-Dec-11 07:00N 37°57' W 122°31'0 0.0
2017-Dec-11 06:30N 37°57' W 122°31'0 0.0
2017-Dec-11 06:00N 37°57' W 122°31'0 0.0
2017-Dec-11 05:30N 37°57' W 122°31'0 0.1
2017-Dec-11 05:00N 37°57' W 122°30'0 0.1
2017-Dec-11 04:30N 37°57' W 122°31'0 0.0
2017-Dec-11 04:00N 37°57' W 122°31'0 0.0
2017-Dec-11 03:30N 37°57' W 122°31'0 0.0
2017-Dec-11 03:00N 37°57' W 122°31'0 0.0
2017-Dec-11 02:30N 37°57' W 122°31'0 0.0
2017-Dec-11 02:00N 37°57' W 122°31'0 0.0
2017-Dec-11 01:30N 37°57' W 122°31'0 0.0
2017-Dec-11 01:00N 37°57' W 122°31'0 0.0
2017-Dec-11 00:30N 37°57' W 122°31'0 0.1
2017-Dec-11 00:00N 37°57' W 122°30'0 0.1
2017-Dec-10 23:30N 37°57' W 122°31'0 0.0
2017-Dec-10 23:00N 37°57' W 122°31'0 0.1
2017-Dec-10 22:30N 37°57' W 122°30'0 0.1
2017-Dec-10 22:00N 37°57' W 122°31'0 0.0
2017-Dec-10 21:30N 37°57' W 122°31'0 0.0
2017-Dec-10 21:00N 37°57' W 122°31'0 0.0
2017-Dec-10 20:30N 37°57' W 122°31'0 0.0
2017-Dec-10 20:00N 37°57' W 122°31'0 0.0
2017-Dec-10 19:30N 37°57' W 122°31'0 0.0
2017-Dec-10 19:00N 37°57' W 122°31'0 0.1
2017-Dec-10 18:30N 37°57' W 122°30'0 0.1
2017-Dec-10 18:00N 37°57' W 122°31'0 0.0
2017-Dec-10 17:30N 37°57' W 122°31'0 0.0
2017-Dec-10 17:00N 37°57' W 122°31'0 0.0
2017-Dec-10 16:30N 37°57' W 122°31'0 0.0
2017-Dec-10 16:00N 37°57' W 122°31'0 0.0
2017-Dec-10 15:30N 37°57' W 122°31'0 0.0
2017-Dec-10 15:00N 37°57' W 122°31'0 0.1
2017-Dec-10 14:30N 37°57' W 122°30'0 0.1
2017-Dec-10 14:00N 37°57' W 122°31'0 0.1
2017-Dec-10 13:30N 37°57' W 122°30'0 0.0
2017-Dec-10 13:00N 37°57' W 122°30'0 0.1
2017-Dec-10 12:30N 37°57' W 122°31'0 0.0
2017-Dec-10 12:00N 37°57' W 122°31'0 0.0
2017-Dec-10 11:30N 37°57' W 122°31'0 0.1
2017-Dec-10 11:00N 37°57' W 122°30'0 0.1
2017-Dec-10 10:30N 37°57' W 122°31'0 0.0
2017-Dec-10 10:00N 37°57' W 122°31'0 0.0
2017-Dec-10 09:30N 37°57' W 122°31'0 0.0
2017-Dec-10 09:00N 37°57' W 122°31'0 0.1
2017-Dec-10 08:30N 37°57' W 122°30'0 0.0
2017-Dec-10 08:00N 37°57' W 122°30'0 0.1
2017-Dec-10 07:29N 37°57' W 122°31'0 0.1
2017-Dec-10 07:00N 37°57' W 122°30'0 0.1
2017-Dec-10 06:30N 37°57' W 122°31'0 0.0
2017-Dec-10 06:00N 37°57' W 122°31'0 0.0
2017-Dec-10 05:30N 37°57' W 122°31'0 0.1
2017-Dec-10 05:00N 37°57' W 122°30'0 0.1
2017-Dec-10 04:29N 37°57' W 122°31'0 0.0
2017-Dec-10 04:00N 37°57' W 122°31'0 0.0
2017-Dec-10 03:30N 37°57' W 122°31'0 0.0
2017-Dec-10 03:00N 37°57' W 122°31'0 0.0
2017-Dec-10 02:30N 37°57' W 122°31'0 0.0
2017-Dec-10 02:00N 37°57' W 122°31'0 0.0
2017-Dec-10 01:30N 37°57' W 122°31'0 0.0
2017-Dec-10 01:00N 37°57' W 122°31'0 0.0
2017-Dec-10 00:30N 37°57' W 122°31'0 0.1
2017-Dec-10 00:00N 37°57' W 122°30'0 0.1
2017-Dec-09 23:30N 37°57' W 122°31'0 0.0
2017-Dec-09 23:00N 37°57' W 122°31'0 0.1
2017-Dec-09 22:30N 37°57' W 122°30'0 0.0
2017-Dec-09 22:00N 37°57' W 122°30'0 0.1
2017-Dec-09 21:30N 37°57' W 122°31'0 0.0
2017-Dec-09 21:00N 37°57' W 122°31'0 0.1
2017-Dec-09 20:30N 37°57' W 122°30'0 0.1
2017-Dec-09 20:00N 37°57' W 122°31'0 0.0
2017-Dec-09 19:30N 37°57' W 122°31'0 0.0
2017-Dec-09 19:00N 37°57' W 122°31'0 0.0
2017-Dec-09 18:30N 37°57' W 122°31'0 0.0
2017-Dec-09 18:00N 37°57' W 122°31'0 0.0
2017-Dec-09 17:30N 37°57' W 122°31'0 0.0
2017-Dec-09 17:00N 37°57' W 122°31'0 0.0
2017-Dec-09 16:30N 37°57' W 122°31'0 0.0
2017-Dec-09 16:00N 37°57' W 122°31'0 0.0
2017-Dec-09 15:30N 37°57' W 122°31'0 0.0
2017-Dec-09 15:00N 37°57' W 122°31'0 0.0
2017-Dec-09 14:30N 37°57' W 122°31'0 0.0
2017-Dec-09 14:00N 37°57' W 122°31'0 0.0
2017-Dec-09 13:30N 37°57' W 122°31'0 0.1
2017-Dec-09 13:00N 37°57' W 122°30'0 0.1
2017-Dec-09 12:30N 37°57' W 122°31'0 0.1
2017-Dec-09 12:00N 37°57' W 122°30'0 0.1
2017-Dec-09 11:30N 37°57' W 122°31'0 0.0
2017-Dec-09 11:00N 37°57' W 122°31'0 0.0
2017-Dec-09 10:30N 37°57' W 122°31'0 0.0
2017-Dec-09 10:00N 37°57' W 122°31'0 0.1
2017-Dec-09 09:30N 37°57' W 122°30'0 0.1
2017-Dec-09 09:00N 37°57' W 122°31'0 0.0
2017-Dec-09 08:29N 37°57' W 122°31'0 0.0
2017-Dec-09 07:59N 37°57' W 122°31'0 0.1
2017-Dec-09 07:30N 37°57' W 122°30'0 0.1
2017-Dec-09 07:00N 37°57' W 122°31'0 0.0
2017-Dec-09 06:30N 37°57' W 122°31'0 0.0
2017-Dec-09 06:00N 37°57' W 122°31'0 0.0
2017-Dec-09 05:29N 37°57' W 122°31'0 0.0
2017-Dec-09 05:00N 37°57' W 122°31'0 0.0
2017-Dec-09 04:30N 37°57' W 122°31'0 0.0
2017-Dec-09 04:00N 37°57' W 122°31'0 0.0
2017-Dec-09 03:30N 37°57' W 122°31'0 0.1
2017-Dec-09 03:00N 37°57' W 122°30'0 0.0
2017-Dec-09 02:30N 37°57' W 122°30'0 0.1
2017-Dec-09 02:00N 37°57' W 122°31'0 0.0
2017-Dec-09 01:30N 37°57' W 122°31'0 0.0
2017-Dec-09 01:01N 37°57' W 122°31'0 0.0
2017-Dec-09 00:30N 37°57' W 122°31'0 0.0
2017-Dec-09 00:00N 37°57' W 122°31'0 0.0
2017-Dec-08 23:30N 37°57' W 122°31'0 0.0
2017-Dec-08 23:00N 37°57' W 122°31'0 0.0
2017-Dec-08 22:30N 37°57' W 122°31'0 0.0
2017-Dec-08 22:00N 37°57' W 122°31'0 0.0
2017-Dec-08 21:30N 37°57' W 122°31'0 0.0
2017-Dec-08 21:00N 37°57' W 122°31'0 0.0
2017-Dec-08 20:30N 37°57' W 122°31'0 0.0
2017-Dec-08 20:00N 37°57' W 122°31'0 0.0
2017-Dec-08 19:30N 37°57' W 122°31'0 0.0
2017-Dec-08 19:00N 37°57' W 122°31'0 0.0
2017-Dec-08 18:30N 37°57' W 122°31'1 2.9
2017-Dec-08 18:00N 37°56' W 122°29'4 8.1
2017-Dec-08 17:30N 37°52' W 122°27'0 0.8
2017-Dec-08 17:00N 37°52' W 122°27'510.5
2017-Dec-08 16:30N 37°48' W 122°24'510.5
2017-Dec-08 16:00N 37°52' W 122°27'4 7.2
2017-Dec-08 15:31N 37°50' W 122°24'1 1.4
2017-Dec-08 15:01N 37°50' W 122°25'3 6.6
2017-Dec-08 14:30N 37°52' W 122°27'510.7
2017-Dec-08 14:00N 37°48' W 122°24'510.9
2017-Dec-08 13:30N 37°52' W 122°27'3 5.9
2017-Dec-08 13:01N 37°55' W 122°27'3 0.4
2017-Dec-08 05:29N 37°57' W 122°31'4 8.0
2017-Dec-08 05:00N 37°54' W 122°27'2 4.1
2017-Dec-08 04:30N 37°52' W 122°27'511.0
2017-Dec-08 04:01N 37°48' W 122°24'510.9
2017-Dec-08 03:30N 37°52' W 122°27'510.1
2017-Dec-08 03:01N 37°48' W 122°23'3 6.5
2017-Dec-08 02:31N 37°51' W 122°26'0 0.3
2017-Dec-08 02:01N 37°51' W 122°26'3 6.6
2017-Dec-08 01:30N 37°48' W 122°24'5 9.9
2017-Dec-08 01:00N 37°52' W 122°27'510.6
2017-Dec-08 00:31N 37°48' W 122°23'1 1.5
2017-Dec-08 00:00N 37°49' W 122°24'815.2
2017-Dec-07 23:30N 37°56' W 122°28'2 4.7
2017-Dec-07 23:00N 37°57' W 122°31'0 0.0
2017-Dec-07 22:30N 37°57' W 122°31'0 0.0
2017-Dec-07 21:58N 37°57' W 122°31'0 0.0
2017-Dec-07 21:25N 37°57' W 122°31'0 0.0
2017-Dec-07 20:59N 37°57' W 122°31'0 0.0
2017-Dec-07 20:30N 37°57' W 122°31'0 0.0
2017-Dec-07 19:56N 37°57' W 122°31'0 0.0
2017-Dec-07 19:26N 37°57' W 122°31'0 0.1
2017-Dec-07 18:46N 37°57' W 122°30'0 1.5
2017-Dec-07 18:30N 37°56' W 122°30'611.5
2017-Dec-07 18:01N 37°52' W 122°25'4 7.4
2017-Dec-07 17:30N 37°49' W 122°24'5 9.1
2017-Dec-07 17:00N 37°52' W 122°27'510.8
2017-Dec-07 16:30N 37°48' W 122°24'510.6
2017-Dec-07 16:00N 37°52' W 122°27'3 6.6
2017-Dec-07 15:31N 37°50' W 122°24'1 1.4
2017-Dec-07 15:00N 37°50' W 122°25'3 6.8
2017-Dec-07 14:31N 37°52' W 122°27'510.9
2017-Dec-07 14:00N 37°48' W 122°24'510.9
2017-Dec-07 13:30N 37°52' W 122°27'3 6.5
2017-Dec-07 13:00N 37°56' W 122°28'2 0.3
2017-Dec-07 05:29N 37°57' W 122°31'3 5.9
2017-Dec-07 05:00N 37°55' W 122°28'3 6.0
2017-Dec-07 04:30N 37°52' W 122°27'510.8
2017-Dec-07 04:00N 37°48' W 122°24'510.9
2017-Dec-07 03:30N 37°52' W 122°27'510.7
2017-Dec-07 03:01N 37°48' W 122°23'3 6.8
2017-Dec-07 02:30N 37°51' W 122°26'0 0.3
2017-Dec-07 02:00N 37°51' W 122°26'4 7.3
2017-Dec-07 01:31N 37°48' W 122°24'510.9
2017-Dec-07 01:00N 37°52' W 122°27'511.0
2017-Dec-07 00:31N 37°48' W 122°23'0 0.1
2017-Dec-07 00:00N 37°48' W 122°24'0 0.0
2017-Dec-06 23:30N 37°48' W 122°24'0 0.0
2017-Dec-06 23:00N 37°48' W 122°24'0 0.0
2017-Dec-06 22:30N 37°48' W 122°24'0 0.0
2017-Dec-06 22:00N 37°48' W 122°24'0 0.0
2017-Dec-06 21:30N 37°48' W 122°24'0 0.0
2017-Dec-06 21:00N 37°48' W 122°24'  
Track history (hours):
 
Tides and Currents Weather Stations Pressure Air Temp Water Temp Dewpoint Dewpoint Depression Visibility Wind Speed Wind Dir Waves Ship Positions

M S San Francisco

Owner: GOLDEN GATE BRIDGE HWY & TRANSP DISTRICT, LARKSPUR, CA. More information available from US FCC via Universal Licensing System and Coast Guard Vessel Documentation Center.

Last reported at 2017-Dec-16 05:00 UTC. Time now 2017-Dec-16 05:03 UTC.
Position N 37°56' W 122°29'.

Length 58 m.

Type: Passenger vessel. MMSI: 366963980.

Date/timePositionNaut miles runAvg speedWind from/ knotsBaromVisibWave heightAir tempDewpointWater temp
2017-Dec-16 05:00N 37°56' W 122°29'4 8.0
2017-Dec-16 04:30N 37°52' W 122°27'510.7
2017-Dec-16 04:00N 37°48' W 122°24'511.0
2017-Dec-16 03:31N 37°52' W 122°27'510.8
2017-Dec-16 03:01N 37°48' W 122°23'4 7.3
2017-Dec-16 02:30N 37°51' W 122°26'1 2.9
2017-Dec-16 02:00N 37°50' W 122°25'2 4.2
2017-Dec-16 01:31N 37°48' W 122°23'510.2
2017-Dec-16 01:00N 37°52' W 122°27'510.9
2017-Dec-16 00:31N 37°48' W 122°23'0 0.9
2017-Dec-16 00:00N 37°48' W 122°23'0 0.9
2017-Dec-15 23:30N 37°48' W 122°24'0 0.0
2017-Dec-15 23:00N 37°48' W 122°24'0 0.0
2017-Dec-15 22:30N 37°48' W 122°24'0 0.0
2017-Dec-15 22:00N 37°48' W 122°24'0 0.0
2017-Dec-15 21:30N 37°48' W 122°24'0 0.0
2017-Dec-15 21:00N 37°48' W 122°24'0 0.0
2017-Dec-15 20:30N 37°48' W 122°24'0 0.0
2017-Dec-15 20:00N 37°48' W 122°24'0 0.0
2017-Dec-15 19:30N 37°48' W 122°24'0 0.0
2017-Dec-15 19:00N 37°48' W 122°24'0 0.0
2017-Dec-15 18:30N 37°48' W 122°24'0 0.8
2017-Dec-15 18:00N 37°48' W 122°23'1 2.2
2017-Dec-15 17:31N 37°49' W 122°24'5 9.4
2017-Dec-15 17:00N 37°52' W 122°27'510.8
2017-Dec-15 16:30N 37°48' W 122°24'510.7
2017-Dec-15 16:00N 37°52' W 122°27'4 8.1
2017-Dec-15 15:30N 37°49' W 122°24'1 1.4
2017-Dec-15 15:01N 37°50' W 122°24'4 7.2
2017-Dec-15 14:30N 37°52' W 122°27'510.9
2017-Dec-15 14:01N 37°48' W 122°24'510.9
2017-Dec-15 13:30N 37°52' W 122°27'3 6.3
2017-Dec-15 13:00N 37°55' W 122°28'3 0.4
2017-Dec-15 05:58N 37°57' W 122°31'0 0.0
2017-Dec-15 05:30N 37°57' W 122°31'3 6.3
2017-Dec-15 05:00N 37°55' W 122°27'3 5.5
2017-Dec-15 04:30N 37°52' W 122°27'510.9
2017-Dec-15 04:00N 37°48' W 122°24'4 2.6
2017-Dec-15 02:31N 37°51' W 122°26'2 1.0
2017-Dec-15 01:00N 37°52' W 122°27'510.9
2017-Dec-15 00:30N 37°48' W 122°23'0 0.0
2017-Dec-14 18:31N 37°48' W 122°24'0 0.7
2017-Dec-14 18:00N 37°48' W 122°23'1 2.3
2017-Dec-14 17:30N 37°49' W 122°23'5 9.3
2017-Dec-14 17:01N 37°52' W 122°27'510.5
2017-Dec-14 16:30N 37°48' W 122°24'510.5
2017-Dec-14 16:00N 37°52' W 122°27'3 3.5
2017-Dec-14 15:00N 37°50' W 122°24'4 7.1
2017-Dec-14 14:30N 37°52' W 122°27'510.7
2017-Dec-14 14:00N 37°48' W 122°24'510.9
2017-Dec-14 13:30N 37°52' W 122°27'4 7.7
2017-Dec-14 13:00N 37°56' W 122°29'  
2017-Dec-11 19:06N 37°57' W 122°31'0 0.1
2017-Dec-11 19:00N 37°57' W 122°31'0 0.0
2017-Dec-11 18:30N 37°57' W 122°31'0 0.0
2017-Dec-11 18:00N 37°57' W 122°31'0 0.1
2017-Dec-11 17:30N 37°57' W 122°30'0 0.1
2017-Dec-11 17:00N 37°57' W 122°31'0 0.0
2017-Dec-11 16:30N 37°57' W 122°31'0 0.1
2017-Dec-11 16:00N 37°57' W 122°30'0 0.0
2017-Dec-11 15:30N 37°57' W 122°30'0 0.1
2017-Dec-11 15:00N 37°57' W 122°31'0 0.0
2017-Dec-11 14:30N 37°57' W 122°31'0 0.1
2017-Dec-11 14:00N 37°57' W 122°30'0 0.1
2017-Dec-11 13:30N 37°57' W 122°31'0 0.0
2017-Dec-11 13:00N 37°57' W 122°31'0 0.0
2017-Dec-11 12:30N 37°57' W 122°31'0 0.1
2017-Dec-11 12:00N 37°57' W 122°30'0 0.1
2017-Dec-11 11:30N 37°57' W 122°31'0 0.0
2017-Dec-11 11:00N 37°57' W 122°31'0 0.0
2017-Dec-11 10:30N 37°57' W 122°31'0 0.0
2017-Dec-11 10:00N 37°57' W 122°31'0 0.0
2017-Dec-11 09:30N 37°57' W 122°31'0 0.0
2017-Dec-11 09:00N 37°57' W 122°31'0 0.0
2017-Dec-11 08:30N 37°57' W 122°31'0 0.0
2017-Dec-11 08:00N 37°57' W 122°31'0 0.0
2017-Dec-11 07:30N 37°57' W 122°31'0 0.0
2017-Dec-11 07:00N 37°57' W 122°31'0 0.0
2017-Dec-11 06:30N 37°57' W 122°31'0 0.0
2017-Dec-11 06:00N 37°57' W 122°31'0 0.0
2017-Dec-11 05:30N 37°57' W 122°31'0 0.1
2017-Dec-11 05:00N 37°57' W 122°30'0 0.1
2017-Dec-11 04:30N 37°57' W 122°31'0 0.0
2017-Dec-11 04:00N 37°57' W 122°31'0 0.0
2017-Dec-11 03:30N 37°57' W 122°31'0 0.0
2017-Dec-11 03:00N 37°57' W 122°31'0 0.0
2017-Dec-11 02:30N 37°57' W 122°31'0 0.0
2017-Dec-11 02:00N 37°57' W 122°31'0 0.0
2017-Dec-11 01:30N 37°57' W 122°31'0 0.0
2017-Dec-11 01:00N 37°57' W 122°31'0 0.0
2017-Dec-11 00:30N 37°57' W 122°31'0 0.1
2017-Dec-11 00:00N 37°57' W 122°30'0 0.1
2017-Dec-10 23:30N 37°57' W 122°31'0 0.0
2017-Dec-10 23:00N 37°57' W 122°31'0 0.1
2017-Dec-10 22:30N 37°57' W 122°30'0 0.1
2017-Dec-10 22:00N 37°57' W 122°31'0 0.0
2017-Dec-10 21:30N 37°57' W 122°31'0 0.0
2017-Dec-10 21:00N 37°57' W 122°31'0 0.0
2017-Dec-10 20:30N 37°57' W 122°31'0 0.0
2017-Dec-10 20:00N 37°57' W 122°31'0 0.0
2017-Dec-10 19:30N 37°57' W 122°31'0 0.0
2017-Dec-10 19:00N 37°57' W 122°31'0 0.1
2017-Dec-10 18:30N 37°57' W 122°30'0 0.1
2017-Dec-10 18:00N 37°57' W 122°31'0 0.0
2017-Dec-10 17:30N 37°57' W 122°31'0 0.0
2017-Dec-10 17:00N 37°57' W 122°31'0 0.0
2017-Dec-10 16:30N 37°57' W 122°31'0 0.0
2017-Dec-10 16:00N 37°57' W 122°31'0 0.0
2017-Dec-10 15:30N 37°57' W 122°31'0 0.0
2017-Dec-10 15:00N 37°57' W 122°31'0 0.1
2017-Dec-10 14:30N 37°57' W 122°30'0 0.1
2017-Dec-10 14:00N 37°57' W 122°31'0 0.1
2017-Dec-10 13:30N 37°57' W 122°30'0 0.0
2017-Dec-10 13:00N 37°57' W 122°30'0 0.1
2017-Dec-10 12:30N 37°57' W 122°31'0 0.0
2017-Dec-10 12:00N 37°57' W 122°31'0 0.0
2017-Dec-10 11:30N 37°57' W 122°31'0 0.1
2017-Dec-10 11:00N 37°57' W 122°30'0 0.1
2017-Dec-10 10:30N 37°57' W 122°31'0 0.0
2017-Dec-10 10:00N 37°57' W 122°31'0 0.0
2017-Dec-10 09:30N 37°57' W 122°31'0 0.0
2017-Dec-10 09:00N 37°57' W 122°31'0 0.1
2017-Dec-10 08:30N 37°57' W 122°30'0 0.0
2017-Dec-10 08:00N 37°57' W 122°30'0 0.1
2017-Dec-10 07:29N 37°57' W 122°31'0 0.1
2017-Dec-10 07:00N 37°57' W 122°30'0 0.1
2017-Dec-10 06:30N 37°57' W 122°31'0 0.0
2017-Dec-10 06:00N 37°57' W 122°31'0 0.0
2017-Dec-10 05:30N 37°57' W 122°31'0 0.1
2017-Dec-10 05:00N 37°57' W 122°30'0 0.1
2017-Dec-10 04:29N 37°57' W 122°31'0 0.0
2017-Dec-10 04:00N 37°57' W 122°31'0 0.0
2017-Dec-10 03:30N 37°57' W 122°31'0 0.0
2017-Dec-10 03:00N 37°57' W 122°31'0 0.0
2017-Dec-10 02:30N 37°57' W 122°31'0 0.0
2017-Dec-10 02:00N 37°57' W 122°31'0 0.0
2017-Dec-10 01:30N 37°57' W 122°31'0 0.0
2017-Dec-10 01:00N 37°57' W 122°31'0 0.0
2017-Dec-10 00:30N 37°57' W 122°31'0 0.1
2017-Dec-10 00:00N 37°57' W 122°30'0 0.1
2017-Dec-09 23:30N 37°57' W 122°31'0 0.0
2017-Dec-09 23:00N 37°57' W 122°31'0 0.1
2017-Dec-09 22:30N 37°57' W 122°30'0 0.0
2017-Dec-09 22:00N 37°57' W 122°30'0 0.1
2017-Dec-09 21:30N 37°57' W 122°31'0 0.0
2017-Dec-09 21:00N 37°57' W 122°31'0 0.1
2017-Dec-09 20:30N 37°57' W 122°30'0 0.1
2017-Dec-09 20:00N 37°57' W 122°31'0 0.0
2017-Dec-09 19:30N 37°57' W 122°31'0 0.0
2017-Dec-09 19:00N 37°57' W 122°31'0 0.0
2017-Dec-09 18:30N 37°57' W 122°31'0 0.0
2017-Dec-09 18:00N 37°57' W 122°31'0 0.0
2017-Dec-09 17:30N 37°57' W 122°31'0 0.0
2017-Dec-09 17:00N 37°57' W 122°31'0 0.0
2017-Dec-09 16:30N 37°57' W 122°31'0 0.0
2017-Dec-09 16:00N 37°57' W 122°31'0 0.0
2017-Dec-09 15:30N 37°57' W 122°31'0 0.0
2017-Dec-09 15:00N 37°57' W 122°31'0 0.0
2017-Dec-09 14:30N 37°57' W 122°31'0 0.0
2017-Dec-09 14:00N 37°57' W 122°31'0 0.0
2017-Dec-09 13:30N 37°57' W 122°31'0 0.1
2017-Dec-09 13:00N 37°57' W 122°30'0 0.1
2017-Dec-09 12:30N 37°57' W 122°31'0 0.1
2017-Dec-09 12:00N 37°57' W 122°30'0 0.1
2017-Dec-09 11:30N 37°57' W 122°31'0 0.0
2017-Dec-09 11:00N 37°57' W 122°31'0 0.0
2017-Dec-09 10:30N 37°57' W 122°31'0 0.0
2017-Dec-09 10:00N 37°57' W 122°31'0 0.1
2017-Dec-09 09:30N 37°57' W 122°30'0 0.1
2017-Dec-09 09:00N 37°57' W 122°31'0 0.0
2017-Dec-09 08:29N 37°57' W 122°31'0 0.0
2017-Dec-09 07:59N 37°57' W 122°31'0 0.1
2017-Dec-09 07:30N 37°57' W 122°30'0 0.1
2017-Dec-09 07:00N 37°57' W 122°31'0 0.0
2017-Dec-09 06:30N 37°57' W 122°31'0 0.0
2017-Dec-09 06:00N 37°57' W 122°31'0 0.0
2017-Dec-09 05:29N 37°57' W 122°31'0 0.0
2017-Dec-09 05:00N 37°57' W 122°31'0 0.0
2017-Dec-09 04:30N 37°57' W 122°31'0 0.0
2017-Dec-09 04:00N 37°57' W 122°31'0 0.0
2017-Dec-09 03:30N 37°57' W 122°31'0 0.1
2017-Dec-09 03:00N 37°57' W 122°30'0 0.0
2017-Dec-09 02:30N 37°57' W 122°30'0 0.1
2017-Dec-09 02:00N 37°57' W 122°31'0 0.0
2017-Dec-09 01:30N 37°57' W 122°31'0 0.0
2017-Dec-09 01:01N 37°57' W 122°31'0 0.0
2017-Dec-09 00:30N 37°57' W 122°31'0 0.0
2017-Dec-09 00:00N 37°57' W 122°31'0 0.0
2017-Dec-08 23:30N 37°57' W 122°31'0 0.0
2017-Dec-08 23:00N 37°57' W 122°31'0 0.0
2017-Dec-08 22:30N 37°57' W 122°31'0 0.0
2017-Dec-08 22:00N 37°57' W 122°31'0 0.0
2017-Dec-08 21:30N 37°57' W 122°31'0 0.0
2017-Dec-08 21:00N 37°57' W 122°31'0 0.0
2017-Dec-08 20:30N 37°57' W 122°31'0 0.0
2017-Dec-08 20:00N 37°57' W 122°31'0 0.0
2017-Dec-08 19:30N 37°57' W 122°31'0 0.0
2017-Dec-08 19:00N 37°57' W 122°31'0 0.0
2017-Dec-08 18:30N 37°57' W 122°31'1 2.9
2017-Dec-08 18:00N 37°56' W 122°29'4 8.1
2017-Dec-08 17:30N 37°52' W 122°27'0 0.8
2017-Dec-08 17:00N 37°52' W 122°27'510.5
2017-Dec-08 16:30N 37°48' W 122°24'510.5
2017-Dec-08 16:00N 37°52' W 122°27'4 7.2
2017-Dec-08 15:31N 37°50' W 122°24'1 1.4
2017-Dec-08 15:01N 37°50' W 122°25'3 6.6
2017-Dec-08 14:30N 37°52' W 122°27'510.7
2017-Dec-08 14:00N 37°48' W 122°24'510.9
2017-Dec-08 13:30N 37°52' W 122°27'3 5.9
2017-Dec-08 13:01N 37°55' W 122°27'3 0.4
2017-Dec-08 05:29N 37°57' W 122°31'4 8.0
2017-Dec-08 05:00N 37°54' W 122°27'2 4.1
2017-Dec-08 04:30N 37°52' W 122°27'511.0
2017-Dec-08 04:01N 37°48' W 122°24'510.9
2017-Dec-08 03:30N 37°52' W 122°27'510.1
2017-Dec-08 03:01N 37°48' W 122°23'3 6.5
2017-Dec-08 02:31N 37°51' W 122°26'0 0.3
2017-Dec-08 02:01N 37°51' W 122°26'3 6.6
2017-Dec-08 01:30N 37°48' W 122°24'5 9.9
2017-Dec-08 01:00N 37°52' W 122°27'510.6
2017-Dec-08 00:31N 37°48' W 122°23'1 1.5
2017-Dec-08 00:00N 37°49' W 122°24'815.2
2017-Dec-07 23:30N 37°56' W 122°28'2 4.7
2017-Dec-07 23:00N 37°57' W 122°31'0 0.0
2017-Dec-07 22:30N 37°57' W 122°31'0 0.0
2017-Dec-07 21:58N 37°57' W 122°31'0 0.0
2017-Dec-07 21:25N 37°57' W 122°31'0 0.0
2017-Dec-07 20:59N 37°57' W 122°31'0 0.0
2017-Dec-07 20:30N 37°57' W 122°31'0 0.0
2017-Dec-07 19:56N 37°57' W 122°31'0 0.0
2017-Dec-07 19:26N 37°57' W 122°31'0 0.1
2017-Dec-07 18:46N 37°57' W 122°30'0 1.5
2017-Dec-07 18:30N 37°56' W 122°30'611.5
2017-Dec-07 18:01N 37°52' W 122°25'4 7.4
2017-Dec-07 17:30N 37°49' W 122°24'5 9.1
2017-Dec-07 17:00N 37°52' W 122°27'510.8
2017-Dec-07 16:30N 37°48' W 122°24'510.6
2017-Dec-07 16:00N 37°52' W 122°27'3 6.6
2017-Dec-07 15:31N 37°50' W 122°24'1 1.4
2017-Dec-07 15:00N 37°50' W 122°25'3 6.8
2017-Dec-07 14:31N 37°52' W 122°27'510.9
2017-Dec-07 14:00N 37°48' W 122°24'510.9
2017-Dec-07 13:30N 37°52' W 122°27'3 6.5
2017-Dec-07 13:00N 37°56' W 122°28'2 0.3
2017-Dec-07 05:29N 37°57' W 122°31'3 5.9
2017-Dec-07 05:00N 37°55' W 122°28'3 6.0
2017-Dec-07 04:30N 37°52' W 122°27'510.8
2017-Dec-07 04:00N 37°48' W 122°24'510.9
2017-Dec-07 03:30N 37°52' W 122°27'510.7
2017-Dec-07 03:01N 37°48' W 122°23'3 6.8
2017-Dec-07 02:30N 37°51' W 122°26'0 0.3
2017-Dec-07 02:00N 37°51' W 122°26'4 7.3
2017-Dec-07 01:31N 37°48' W 122°24'510.9
2017-Dec-07 01:00N 37°52' W 122°27'511.0
2017-Dec-07 00:31N 37°48' W 122°23'0 0.1
2017-Dec-07 00:00N 37°48' W 122°24'0 0.0
2017-Dec-06 23:30N 37°48' W 122°24'0 0.0
2017-Dec-06 23:00N 37°48' W 122°24'0 0.0
2017-Dec-06 22:30N 37°48' W 122°24'0 0.0
2017-Dec-06 22:00N 37°48' W 122°24'0 0.0
2017-Dec-06 21:30N 37°48' W 122°24'0 0.0
2017-Dec-06 21:00N 37°48' W 122°24'  

Dump ship's entire track history